createdAt,value
2018-04-17T15:27:06.398Z,34.20
2018-04-17T15:27:39.690Z,34.50
2018-04-17T15:28:00.610Z,33.70
2018-04-17T15:28:15.924Z,33.20
2018-04-17T15:28:29.232Z,32.60
2018-04-17T15:28:42.435Z,33.00
2018-04-17T15:28:55.609Z,33.10
2018-04-17T15:29:08.808Z,32.40
2018-04-17T15:29:22.049Z,32.20
2018-04-17T15:29:59.729Z,33.80
2018-04-17T15:30:13.823Z,34.70
2018-04-17T15:30:27.014Z,36.20
2018-04-17T15:30:40.209Z,35.20
2018-04-17T15:30:53.353Z,35.20
2018-04-17T15:31:07.215Z,34.50
2018-04-17T15:31:20.444Z,36.10
2018-04-17T20:13:43.738Z,42.80
2018-04-17T20:13:57.023Z,42.10
2018-04-17T20:14:10.661Z,41.70
2018-04-17T20:15:24.655Z,41.20
2018-04-17T20:16:17.849Z,41.30
2018-04-17T20:17:11.964Z,41.20
2018-04-17T20:18:05.348Z,41.20
2018-04-17T20:18:58.648Z,41.20
2018-04-17T20:19:51.852Z,41.70
2018-04-17T20:20:46.014Z,41.20
2018-04-17T20:21:39.682Z,41.30
2018-04-17T20:22:34.602Z,41.20
2018-04-17T20:23:29.270Z,41.20
2018-04-17T20:24:22.919Z,41.30
2018-04-17T20:25:18.674Z,41.30
2018-04-17T20:26:12.788Z,41.30
2018-04-17T20:27:10.126Z,41.20
2018-04-17T20:28:04.886Z,41.30
2018-04-17T20:28:58.639Z,41.20
2018-04-17T20:29:51.884Z,41.30
2018-04-17T20:30:45.195Z,41.30
2018-04-17T20:31:38.418Z,41.30
2018-04-17T20:32:31.601Z,41.30
2018-04-17T20:33:24.805Z,41.30
2018-04-17T20:34:18.082Z,41.40
2018-04-17T20:35:11.403Z,41.40
2018-04-17T20:37:51.505Z,41.60
2018-04-17T22:23:53.289Z,41.10
2018-04-17T22:24:46.621Z,41.10
2018-04-17T22:25:40.635Z,40.00
2018-04-17T22:26:33.984Z,40.00
2018-04-17T22:27:27.183Z,39.60
2018-04-17T22:28:21.455Z,39.10
2018-04-17T22:29:15.437Z,38.90
2018-04-17T22:30:08.714Z,38.90
2018-04-17T22:31:38.775Z,38.50
2018-04-17T22:32:32.068Z,37.30
2018-04-17T22:33:25.244Z,36.50
2018-04-17T22:34:19.265Z,35.50
2018-04-17T22:35:12.459Z,35.40
2018-04-17T22:36:06.420Z,33.70
2018-04-17T22:36:59.612Z,33.60
2018-04-17T22:37:52.802Z,33.70
2018-04-17T22:38:45.979Z,33.80
2018-04-17T22:39:39.961Z,32.90
2018-04-17T22:40:33.282Z,32.80
2018-04-17T22:41:27.225Z,31.20
2018-04-17T22:42:20.450Z,31.20
2018-04-17T22:43:13.728Z,31.40
2018-04-17T22:44:06.890Z,31.20
2018-04-17T22:45:00.846Z,30.60
2018-04-17T22:45:54.054Z,30.60
2018-04-17T22:46:47.316Z,30.50
2018-04-17T22:47:40.650Z,30.40
